KPUW/PUW METAR and TAF weather

Enter ICAO airport designator
Station Type Date Time Source
KPUW METAR 2023/02/05 22:53 UTC NOAA

KPUW 052253Z AUTO 25012G20KT 4SM -RA BR BKN008 OVC014 02/01 A2983 RMK AO2 SLP120 P0001 T00170006


Station Type Date Time Source
KPUW Decoded METAR 2023/02/05 22:53 UTC NOAA

PULLMAN/MOSCOW RGNL AIRPORT , WA, United States (KPUW) 46-45N 117-07W 773M
Feb 05, 2023 - 05:53 PM EST / 2023.02.05 2253 UTC
Wind: from the WSW (250 degrees) at 14 MPH (12 KT) gusting to 23 MPH (20 KT):0
Visibility: 4 mile(s):0
Sky conditions: overcast
Weather: light rain; mist
Precipitation last hour: 0.01 inches
Temperature: 35.1 F (1.7 C)
Dew Point: 33.1 F (0.6 C)
Relative Humidity: 92%
Pressure (altimeter): 29.83 in. Hg (1010 hPa)
ob: KPUW 052253Z AUTO 25012G20KT 4SM -RA BR BKN008 OVC014 02/01 A2983 RMK AO2 SLP120 P0001 T00170006
cycle: 23

Station Type Date Time Source
KPUW TAF 2023/02/05 18:22 UTC NOAA

TAF KPUW 051720Z 0518/0618 14009KT P6SM -RA SCT015 OVC045
TEMPO 0518/0521 2SM -RA BKN015 OVC025
FM060000 22008KT 5SM -RA BR OVC015
FM060600 25010G18KT P6SM OVC020
FM060800 25015G20KT P6SM BKN009 OVC020

Example: see airport list